FMNM/MJN METAR and TAF weather

Enter ICAO airport designator
Station Type Date Time Source
FMNM METAR 2019/02/23 23:00 UTC NOAA

FMNM 232300Z 26006KT 9999 FEW020CB SCT040 27/25 Q1009


Station Type Date Time Source
FMNM Decoded METAR 2019/02/23 23:00 UTC NOAA

Majunga, Madagascar (FMNM) 15-40S 046-21E 18M
Feb 23, 2019 - 06:00 PM EST / 2019.02.23 2300 UTC
Wind: from the W (260 degrees) at 7 MPH (6 KT):0
Visibility: greater than 7 mile(s):0
Sky conditions: partly cloudy
Weather: Cumulonimbus clouds observed
Temperature: 80 F (27 C)
Dew Point: 77 F (25 C)
Relative Humidity: 88%
Pressure (altimeter): 29.80 in. Hg (1009 hPa)
ob: FMNM 232300Z 26006KT 9999 FEW020CB SCT040 27/25 Q1009
cycle: 23

Station Type Date Time Source
FMNM TAF 2019/02/23 18:04 UTC NOAA

TAF FMNM 231700Z 2318/2418 VRB05KT 9999 FEW020CB SCT040 PROB30
TEMPO 2400/2409 4500 TSRA
BECMG 2410/2412 34010KT FEW020 SCT040


Example: see airport list